sensor_id;sensor_type;location;lat;lon;timestamp;pressure;altitude;pressure_sealevel;temperature;humidity
62978;BME280;49073;42.352;23.808;2023-05-24T00:01:12;94532.16;;;11.36;86.58
62978;BME280;49073;42.352;23.808;2023-05-24T00:04:13;94532.13;;;11.32;86.65
62978;BME280;49073;42.352;23.808;2023-05-24T00:07:14;94530.66;;;11.39;85.64
62978;BME280;49073;42.352;23.808;2023-05-24T00:10:15;94530.66;;;11.39;84.29
62978;BME280;49073;42.352;23.808;2023-05-24T00:13:16;94528.59;;;11.25;84.51
62978;BME280;49073;42.352;23.808;2023-05-24T00:16:17;94529.97;;;11.15;85.00
62978;BME280;49073;42.352;23.808;2023-05-24T00:19:17;94529.16;;;11.11;85.21
62978;BME280;49073;42.352;23.808;2023-05-24T00:22:21;94524.13;;;11.05;85.76
62978;BME280;49073;42.352;23.808;2023-05-24T00:25:22;94522.84;;;10.96;86.42
62978;BME280;49073;42.352;23.808;2023-05-24T00:28:23;94521.97;;;10.88;87.14
62978;BME280;49073;42.352;23.808;2023-05-24T00:31:24;94521.88;;;10.81;87.73
62978;BME280;49073;42.352;23.808;2023-05-24T00:34:24;94522.53;;;10.74;87.96
62978;BME280;49073;42.352;23.808;2023-05-24T00:37:25;94516.91;;;10.79;86.91
62978;BME280;49073;42.352;23.808;2023-05-24T00:40:26;94511.19;;;10.81;86.42
62978;BME280;49073;42.352;23.808;2023-05-24T00:43:27;94513.44;;;10.52;87.94
62978;BME280;49073;42.352;23.808;2023-05-24T00:46:30;94519.34;;;10.65;88.40
62978;BME280;49073;42.352;23.808;2023-05-24T00:49:31;94509.94;;;10.71;86.83
62978;BME280;49073;42.352;23.808;2023-05-24T00:52:32;94509.75;;;10.60;86.88
62978;BME280;49073;42.352;23.808;2023-05-24T00:55:33;94503.91;;;10.51;87.78
62978;BME280;49073;42.352;23.808;2023-05-24T00:58:36;94499.50;;;10.39;89.79
62978;BME280;49073;42.352;23.808;2023-05-24T01:01:37;94508.75;;;10.45;89.03
62978;BME280;49073;42.352;23.808;2023-05-24T01:04:38;94504.13;;;10.42;89.41
62978;BME280;49073;42.352;23.808;2023-05-24T01:17:32;94510.09;;;10.12;93.48
62978;BME280;49073;42.352;23.808;2023-05-24T01:20:38;94494.47;;;10.33;93.15
62978;BME280;49073;42.352;23.808;2023-05-24T01:24:36;94498.75;;;10.38;91.64
62978;BME280;49073;42.352;23.808;2023-05-24T01:27:26;94495.03;;;10.43;89.33
62978;BME280;49073;42.352;23.808;2023-05-24T01:30:27;94506.50;;;10.47;88.52
62978;BME280;49073;42.352;23.808;2023-05-24T01:33:28;94496.72;;;10.31;88.15
62978;BME280;49073;42.352;23.808;2023-05-24T01:36:29;94490.19;;;10.29;88.93
62978;BME280;49073;42.352;23.808;2023-05-24T01:39:30;94496.06;;;10.15;89.56
62978;BME280;49073;42.352;23.808;2023-05-24T01:42:58;94497.13;;;10.10;90.51
62978;BME280;49073;42.352;23.808;2023-05-24T01:49:16;94499.44;;;10.12;88.48
62978;BME280;49073;42.352;23.808;2023-05-24T01:52:21;94494.78;;;9.85;90.52
62978;BME280;49073;42.352;23.808;2023-05-24T01:55:23;94495.63;;;9.89;91.46
62978;BME280;49073;42.352;23.808;2023-05-24T01:58:26;94495.16;;;10.07;92.03
62978;BME280;49073;42.352;23.808;2023-05-24T02:01:30;94494.94;;;10.16;90.27
62978;BME280;49073;42.352;23.808;2023-05-24T02:04:31;94496.81;;;10.15;89.90
62978;BME280;49073;42.352;23.808;2023-05-24T02:07:31;94493.81;;;10.17;89.67
62978;BME280;49073;42.352;23.808;2023-05-24T02:10:33;94491.75;;;10.07;90.13
62978;BME280;49073;42.352;23.808;2023-05-24T02:13:34;94496.72;;;10.08;91.02
62978;BME280;49073;42.352;23.808;2023-05-24T02:16:34;94503.66;;;10.13;91.07
62978;BME280;49073;42.352;23.808;2023-05-24T02:19:41;94503.75;;;10.20;90.41
62978;BME280;49073;42.352;23.808;2023-05-24T02:22:42;94504.63;;;10.28;89.15
62978;BME280;49073;42.352;23.808;2023-05-24T02:25:42;94498.75;;;10.15;89.08
62978;BME280;49073;42.352;23.808;2023-05-24T02:28:43;94503.09;;;10.27;88.00
62978;BME280;49073;42.352;23.808;2023-05-24T02:31:44;94504.72;;;10.31;87.65
62978;BME280;49073;42.352;23.808;2023-05-24T02:34:44;94499.56;;;10.19;87.33
62978;BME280;49073;42.352;23.808;2023-05-24T02:37:45;94498.91;;;10.02;89.20
62978;BME280;49073;42.352;23.808;2023-05-24T02:40:45;94497.13;;;10.10;89.37
62978;BME280;49073;42.352;23.808;2023-05-24T02:43:46;94493.72;;;10.10;88.02
62978;BME280;49073;42.352;23.808;2023-05-24T02:46:47;94496.94;;;9.99;87.86
62978;BME280;49073;42.352;23.808;2023-05-24T02:49:48;94498.16;;;9.82;89.61
62978;BME280;49073;42.352;23.808;2023-05-24T02:52:48;94503.38;;;9.98;90.39
62978;BME280;49073;42.352;23.808;2023-05-24T02:55:49;94508.16;;;9.89;90.09
62978;BME280;49073;42.352;23.808;2023-05-24T02:58:50;94501.41;;;9.95;90.21
62978;BME280;49073;42.352;23.808;2023-05-24T03:01:53;94504.31;;;9.86;92.53
62978;BME280;49073;42.352;23.808;2023-05-24T03:04:53;94495.91;;;9.84;92.57
62978;BME280;49073;42.352;23.808;2023-05-24T03:07:54;94496.59;;;10.01;91.68
62978;BME280;49073;42.352;23.808;2023-05-24T03:10:56;94496.50;;;9.97;89.45
62978;BME280;49073;42.352;23.808;2023-05-24T03:13:58;94494.69;;;10.01;89.94
62978;BME280;49073;42.352;23.808;2023-05-24T03:16:58;94490.44;;;9.97;90.31
62978;BME280;49073;42.352;23.808;2023-05-24T03:19:59;94486.91;;;9.69;91.40
62978;BME280;49073;42.352;23.808;2023-05-24T03:23:00;94491.84;;;9.90;91.14
62978;BME280;49073;42.352;23.808;2023-05-24T03:26:01;94493.81;;;9.94;90.81
62978;BME280;49073;42.352;23.808;2023-05-24T03:29:01;94489.22;;;9.94;90.48
62978;BME280;49073;42.352;23.808;2023-05-24T03:32:02;94482.38;;;9.93;90.99
62978;BME280;49073;42.352;23.808;2023-05-24T03:35:03;94493.13;;;10.00;90.37
62978;BME280;49073;42.352;23.808;2023-05-24T03:38:04;94482.97;;;10.06;90.13
62978;BME280;49073;42.352;23.808;2023-05-24T03:41:04;94494.53;;;10.14;89.71
62978;BME280;49073;42.352;23.808;2023-05-24T03:44:06;94502.34;;;10.26;90.18
62978;BME280;49073;42.352;23.808;2023-05-24T03:47:07;94503.06;;;10.23;90.69
62978;BME280;49073;42.352;23.808;2023-05-24T03:50:08;94505.59;;;10.16;91.68
62978;BME280;49073;42.352;23.808;2023-05-24T03:53:09;94501.69;;;10.33;91.92
62978;BME280;49073;42.352;23.808;2023-05-24T03:56:09;94508.72;;;10.41;92.72
62978;BME280;49073;42.352;23.808;2023-05-24T03:59:10;94508.41;;;10.46;93.84
62978;BME280;49073;42.352;23.808;2023-05-24T04:02:11;94513.03;;;10.50;95.30
62978;BME280;49073;42.352;23.808;2023-05-24T04:05:12;94515.00;;;10.56;95.83
62978;BME280;49073;42.352;23.808;2023-05-24T04:08:13;94517.56;;;10.72;96.38
62978;BME280;49073;42.352;23.808;2023-05-24T04:11:15;94509.25;;;10.77;96.93
62978;BME280;49073;42.352;23.808;2023-05-24T04:14:16;94511.59;;;10.56;97.95
62978;BME280;49073;42.352;23.808;2023-05-24T04:17:16;94510.81;;;10.55;98.59
62978;BME280;49073;42.352;23.808;2023-05-24T04:20:17;94517.41;;;10.61;99.10
62978;BME280;49073;42.352;23.808;2023-05-24T04:23:18;94522.25;;;10.79;98.29
62978;BME280;49073;42.352;23.808;2023-05-24T04:26:18;94530.25;;;10.56;99.42
62978;BME280;49073;42.352;23.808;2023-05-24T04:29:20;94533.28;;;10.34;99.21
62978;BME280;49073;42.352;23.808;2023-05-24T04:32:21;94526.22;;;10.42;99.20
62978;BME280;49073;42.352;23.808;2023-05-24T04:35:23;94529.41;;;10.75;98.77
62978;BME280;49073;42.352;23.808;2023-05-24T04:38:25;94525.63;;;11.03;97.21
62978;BME280;49073;42.352;23.808;2023-05-24T04:41:29;94529.50;;;11.09;97.00
62978;BME280;49073;42.352;23.808;2023-05-24T04:44:32;94532.75;;;11.22;97.22
62978;BME280;49073;42.352;23.808;2023-05-24T04:47:33;94530.00;;;11.45;97.46
62978;BME280;49073;42.352;23.808;2023-05-24T04:50:33;94534.69;;;11.56;97.75
62978;BME280;49073;42.352;23.808;2023-05-24T04:53:36;94543.91;;;11.62;98.26
62978;BME280;49073;42.352;23.808;2023-05-24T04:56:37;94533.06;;;11.78;98.87
62978;BME280;49073;42.352;23.808;2023-05-24T04:59:38;94539.44;;;11.70;98.81
62978;BME280;49073;42.352;23.808;2023-05-24T05:02:38;94546.13;;;11.87;98.78
62978;BME280;49073;42.352;23.808;2023-05-24T05:05:39;94539.28;;;11.89;97.78
62978;BME280;49073;42.352;23.808;2023-05-24T05:08:39;94544.28;;;11.94;99.68
62978;BME280;49073;42.352;23.808;2023-05-24T05:11:41;94544.69;;;11.97;99.76
62978;BME280;49073;42.352;23.808;2023-05-24T05:14:41;94547.75;;;11.95;100.00
62978;BME280;49073;42.352;23.808;2023-05-24T05:17:44;94547.47;;;12.04;98.44
62978;BME280;49073;42.352;23.808;2023-05-24T05:20:45;94541.00;;;12.05;96.06
62978;BME280;49073;42.352;23.808;2023-05-24T05:23:46;94548.53;;;12.33;95.46
62978;BME280;49073;42.352;23.808;2023-05-24T05:26:46;94540.94;;;12.39;96.31
62978;BME280;49073;42.352;23.808;2023-05-24T05:29:47;94547.63;;;12.60;97.45
62978;BME280;49073;42.352;23.808;2023-05-24T05:32:47;94548.16;;;12.76;97.89
62978;BME280;49073;42.352;23.808;2023-05-24T05:35:48;94543.66;;;12.91;96.00
62978;BME280;49073;42.352;23.808;2023-05-24T05:38:48;94553.22;;;12.92;93.99
62978;BME280;49073;42.352;23.808;2023-05-24T05:41:49;94551.75;;;12.99;92.18
62978;BME280;49073;42.352;23.808;2023-05-24T05:44:49;94558.31;;;13.08;91.66
62978;BME280;49073;42.352;23.808;2023-05-24T05:47:51;94559.16;;;13.23;92.54
62978;BME280;49073;42.352;23.808;2023-05-24T05:50:52;94561.88;;;13.31;92.13
62978;BME280;49073;42.352;23.808;2023-05-24T05:53:53;94564.69;;;13.49;92.33
62978;BME280;49073;42.352;23.808;2023-05-24T05:56:54;94568.88;;;13.46;90.43
62978;BME280;49073;42.352;23.808;2023-05-24T05:59:54;94563.59;;;13.57;90.37
62978;BME280;49073;42.352;23.808;2023-05-24T06:02:55;94565.56;;;13.71;90.25
62978;BME280;49073;42.352;23.808;2023-05-24T06:05:56;94560.22;;;13.75;90.94
62978;BME280;49073;42.352;23.808;2023-05-24T06:08:57;94566.03;;;13.95;91.21
62978;BME280;49073;42.352;23.808;2023-05-24T06:11:58;94563.78;;;14.04;91.59
62978;BME280;49073;42.352;23.808;2023-05-24T06:14:58;94566.16;;;14.24;93.58
62978;BME280;49073;42.352;23.808;2023-05-24T06:17:59;94567.66;;;14.21;92.63
62978;BME280;49073;42.352;23.808;2023-05-24T06:21:01;94560.00;;;14.23;92.72
62978;BME280;49073;42.352;23.808;2023-05-24T06:24:03;94559.28;;;14.45;93.17
62978;BME280;49073;42.352;23.808;2023-05-24T06:27:04;94564.28;;;14.57;91.53
62978;BME280;49073;42.352;23.808;2023-05-24T06:30:06;94571.19;;;14.62;91.96
62978;BME280;49073;42.352;23.808;2023-05-24T06:33:07;94567.38;;;14.92;92.74
62978;BME280;49073;42.352;23.808;2023-05-24T06:36:08;94568.56;;;15.05;89.58
62978;BME280;49073;42.352;23.808;2023-05-24T06:39:09;94566.59;;;15.24;89.79
62978;BME280;49073;42.352;23.808;2023-05-24T06:42:10;94569.28;;;15.31;87.99
62978;BME280;49073;42.352;23.808;2023-05-24T06:45:11;94566.19;;;15.47;87.67
62978;BME280;49073;42.352;23.808;2023-05-24T06:48:12;94574.19;;;15.65;86.36
62978;BME280;49073;42.352;23.808;2023-05-24T06:51:13;94567.22;;;15.82;85.59
62978;BME280;49073;42.352;23.808;2023-05-24T06:54:14;94568.66;;;16.12;88.74
62978;BME280;49073;42.352;23.808;2023-05-24T06:57:15;94559.78;;;16.26;86.94
62978;BME280;49073;42.352;23.808;2023-05-24T07:00:16;94560.94;;;16.18;83.07
62978;BME280;49073;42.352;23.808;2023-05-24T07:03:17;94556.28;;;16.29;82.59
62978;BME280;49073;42.352;23.808;2023-05-24T07:06:17;94553.16;;;16.38;78.79
62978;BME280;49073;42.352;23.808;2023-05-24T07:09:18;94544.59;;;16.58;80.74
62978;BME280;49073;42.352;23.808;2023-05-24T07:12:19;94542.22;;;16.64;76.50
62978;BME280;49073;42.352;23.808;2023-05-24T07:15:20;94545.94;;;16.81;76.82
62978;BME280;49073;42.352;23.808;2023-05-24T07:18:21;94550.72;;;17.15;76.81
62978;BME280;49073;42.352;23.808;2023-05-24T07:21:21;94547.06;;;17.33;74.39
62978;BME280;49073;42.352;23.808;2023-05-24T07:24:22;94555.72;;;17.51;76.28
62978;BME280;49073;42.352;23.808;2023-05-24T07:27:23;94550.69;;;17.57;71.24
62978;BME280;49073;42.352;23.808;2023-05-24T07:30:23;94549.00;;;17.67;67.72
62978;BME280;49073;42.352;23.808;2023-05-24T07:33:24;94551.94;;;17.83;63.56
62978;BME280;49073;42.352;23.808;2023-05-24T07:36:25;94549.25;;;18.14;67.18
62978;BME280;49073;42.352;23.808;2023-05-24T07:39:27;94560.47;;;18.40;66.84
62978;BME280;49073;42.352;23.808;2023-05-24T07:42:27;94549.09;;;18.56;69.12
62978;BME280;49073;42.352;23.808;2023-05-24T07:45:28;94546.22;;;18.67;63.58
62978;BME280;49073;42.352;23.808;2023-05-24T07:48:29;94558.50;;;18.72;60.68
62978;BME280;49073;42.352;23.808;2023-05-24T07:51:29;94552.50;;;18.60;58.14
62978;BME280;49073;42.352;23.808;2023-05-24T07:54:31;94549.72;;;18.64;56.75
62978;BME280;49073;42.352;23.808;2023-05-24T07:57:32;94546.78;;;19.06;53.50
62978;BME280;49073;42.352;23.808;2023-05-24T08:00:33;94553.69;;;18.83;48.60
62978;BME280;49073;42.352;23.808;2023-05-24T08:03:34;94550.31;;;18.75;52.47
62978;BME280;49073;42.352;23.808;2023-05-24T08:06:35;94552.13;;;18.86;53.69
62978;BME280;49073;42.352;23.808;2023-05-24T08:09:36;94551.63;;;19.18;55.48
62978;BME280;49073;42.352;23.808;2023-05-24T08:12:40;94546.78;;;19.30;54.24
62978;BME280;49073;42.352;23.808;2023-05-24T08:15:40;94548.03;;;19.45;52.31
62978;BME280;49073;42.352;23.808;2023-05-24T08:18:41;94547.22;;;19.48;54.15
62978;BME280;49073;42.352;23.808;2023-05-24T08:21:41;94550.22;;;19.54;52.70
62978;BME280;49073;42.352;23.808;2023-05-24T08:24:42;94540.63;;;19.50;52.98
62978;BME280;49073;42.352;23.808;2023-05-24T08:27:43;94548.91;;;19.62;51.62
62978;BME280;49073;42.352;23.808;2023-05-24T08:30:43;94549.31;;;19.81;50.92
62978;BME280;49073;42.352;23.808;2023-05-24T08:33:44;94545.38;;;20.06;52.62
62978;BME280;49073;42.352;23.808;2023-05-24T08:36:44;94553.53;;;20.23;52.82
62978;BME280;49073;42.352;23.808;2023-05-24T08:39:46;94553.72;;;20.32;50.88
62978;BME280;49073;42.352;23.808;2023-05-24T08:42:48;94550.66;;;20.30;50.26
62978;BME280;49073;42.352;23.808;2023-05-24T08:45:51;94540.72;;;20.43;49.00
62978;BME280;49073;42.352;23.808;2023-05-24T08:48:53;94546.13;;;20.43;46.66
62978;BME280;49073;42.352;23.808;2023-05-24T08:51:54;94548.00;;;20.46;45.99
62978;BME280;49073;42.352;23.808;2023-05-24T08:54:55;94546.22;;;20.56;47.29
62978;BME280;49073;42.352;23.808;2023-05-24T08:57:56;94553.19;;;20.74;48.47
62978;BME280;49073;42.352;23.808;2023-05-24T09:00:57;94544.00;;;20.88;48.62
62978;BME280;49073;42.352;23.808;2023-05-24T09:03:59;94538.91;;;20.90;45.63
62978;BME280;49073;42.352;23.808;2023-05-24T09:07:00;94552.88;;;21.05;46.37
62978;BME280;49073;42.352;23.808;2023-05-24T09:10:07;94542.94;;;21.15;45.36
62978;BME280;49073;42.352;23.808;2023-05-24T09:13:08;94547.25;;;21.29;44.99
62978;BME280;49073;42.352;23.808;2023-05-24T09:16:09;94553.25;;;21.36;45.37
62978;BME280;49073;42.352;23.808;2023-05-24T09:19:11;94546.59;;;21.54;46.20
62978;BME280;49073;42.352;23.808;2023-05-24T09:22:15;94550.22;;;21.93;47.24
62978;BME280;49073;42.352;23.808;2023-05-24T09:25:19;94552.28;;;22.02;42.63
62978;BME280;49073;42.352;23.808;2023-05-24T09:28:20;94547.88;;;22.21;42.09
62978;BME280;49073;42.352;23.808;2023-05-24T09:31:31;94548.09;;;22.14;42.68
62978;BME280;49073;42.352;23.808;2023-05-24T09:34:40;94552.28;;;21.89;38.17
62978;BME280;49073;42.352;23.808;2023-05-24T09:37:41;94544.34;;;21.53;41.50
62978;BME280;49073;42.352;23.808;2023-05-24T09:40:42;94554.44;;;21.82;41.23
62978;BME280;49073;42.352;23.808;2023-05-24T09:43:48;94543.34;;;21.76;41.10
62978;BME280;49073;42.352;23.808;2023-05-24T09:46:49;94540.94;;;21.78;41.69
62978;BME280;49073;42.352;23.808;2023-05-24T09:49:51;94542.84;;;21.81;43.39
62978;BME280;49073;42.352;23.808;2023-05-24T09:52:51;94534.66;;;21.68;41.35
62978;BME280;49073;42.352;23.808;2023-05-24T09:55:53;94546.53;;;21.87;42.17
62978;BME280;49073;42.352;23.808;2023-05-24T09:58:54;94545.50;;;22.23;42.04
62978;BME280;49073;42.352;23.808;2023-05-24T10:02:06;94543.47;;;22.66;39.78
62978;BME280;49073;42.352;23.808;2023-05-24T10:05:09;94551.28;;;23.03;39.52
62978;BME280;49073;42.352;23.808;2023-05-24T10:08:11;94540.66;;;23.31;38.04
62978;BME280;49073;42.352;23.808;2023-05-24T10:11:13;94543.53;;;23.15;38.43
62978;BME280;49073;42.352;23.808;2023-05-24T10:14:14;94540.59;;;23.09;38.52
62978;BME280;49073;42.352;23.808;2023-05-24T10:17:17;94530.66;;;23.41;37.96
62978;BME280;49073;42.352;23.808;2023-05-24T10:20:18;94530.53;;;23.67;37.16
62978;BME280;49073;42.352;23.808;2023-05-24T10:23:19;94533.97;;;22.97;36.37
62978;BME280;49073;42.352;23.808;2023-05-24T10:26:23;94533.81;;;22.52;38.37
62978;BME280;49073;42.352;23.808;2023-05-24T10:29:43;94538.47;;;22.39;40.23
62978;BME280;49073;42.352;23.808;2023-05-24T10:32:46;94538.19;;;21.94;40.31
62978;BME280;49073;42.352;23.808;2023-05-24T10:35:48;94540.34;;;21.87;41.83
62978;BME280;49073;42.352;23.808;2023-05-24T10:38:49;94528.91;;;22.60;40.60
62978;BME280;49073;42.352;23.808;2023-05-24T10:41:50;94545.13;;;23.38;41.58
62978;BME280;49073;42.352;23.808;2023-05-24T10:44:51;94532.09;;;23.55;44.00
62978;BME280;49073;42.352;23.808;2023-05-24T10:47:51;94535.91;;;23.58;43.18
62978;BME280;49073;42.352;23.808;2023-05-24T10:50:54;94530.13;;;23.20;46.29
62978;BME280;49073;42.352;23.808;2023-05-24T10:53:56;94535.44;;;22.63;44.40
62978;BME280;49073;42.352;23.808;2023-05-24T10:57:00;94541.84;;;22.43;48.24
62978;BME280;49073;42.352;23.808;2023-05-24T11:03:33;94552.34;;;21.56;50.32
62978;BME280;49073;42.352;23.808;2023-05-24T11:06:45;94548.03;;;21.13;52.78
62978;BME280;49073;42.352;23.808;2023-05-24T11:09:49;94542.72;;;20.92;54.05
62978;BME280;49073;42.352;23.808;2023-05-24T11:12:59;94549.56;;;20.64;54.53
62978;BME280;49073;42.352;23.808;2023-05-24T11:16:01;94547.25;;;20.46;54.77
62978;BME280;49073;42.352;23.808;2023-05-24T11:19:20;94557.09;;;20.19;56.00
62978;BME280;49073;42.352;23.808;2023-05-24T11:22:22;94554.09;;;19.94;56.27
62978;BME280;49073;42.352;23.808;2023-05-24T11:25:23;94557.59;;;19.94;56.05
62978;BME280;49073;42.352;23.808;2023-05-24T11:28:23;94556.59;;;19.84;57.86
62978;BME280;49073;42.352;23.808;2023-05-24T11:31:27;94556.72;;;19.77;55.76
62978;BME280;49073;42.352;23.808;2023-05-24T11:34:28;94556.25;;;19.82;55.67
62978;BME280;49073;42.352;23.808;2023-05-24T11:37:31;94549.75;;;19.80;54.39
62978;BME280;49073;42.352;23.808;2023-05-24T11:40:32;94546.88;;;19.87;54.06
62978;BME280;49073;42.352;23.808;2023-05-24T11:43:33;94540.44;;;20.01;53.35
62978;BME280;49073;42.352;23.808;2023-05-24T11:46:34;94536.78;;;20.11;52.01
62978;BME280;49073;42.352;23.808;2023-05-24T11:49:35;94542.38;;;20.20;53.63
62978;BME280;49073;42.352;23.808;2023-05-24T11:52:39;94533.03;;;20.42;50.64
62978;BME280;49073;42.352;23.808;2023-05-24T11:55:40;94535.75;;;20.58;51.56
62978;BME280;49073;42.352;23.808;2023-05-24T11:58:48;94537.56;;;20.82;50.29
62978;BME280;49073;42.352;23.808;2023-05-24T12:01:56;94538.47;;;21.08;49.43
62978;BME280;49073;42.352;23.808;2023-05-24T12:05:08;94530.44;;;21.21;50.24
62978;BME280;49073;42.352;23.808;2023-05-24T12:08:11;94534.47;;;21.29;48.39
62978;BME280;49073;42.352;23.808;2023-05-24T12:11:13;94533.50;;;21.53;47.91
62978;BME280;49073;42.352;23.808;2023-05-24T12:14:21;94535.56;;;21.61;47.81
62978;BME280;49073;42.352;23.808;2023-05-24T12:17:23;94531.13;;;21.55;44.45
62978;BME280;49073;42.352;23.808;2023-05-24T12:20:26;94530.84;;;21.65;44.13
62978;BME280;49073;42.352;23.808;2023-05-24T12:23:27;94516.53;;;21.78;42.51
62978;BME280;49073;42.352;23.808;2023-05-24T12:26:28;94520.50;;;22.03;42.57
62978;BME280;49073;42.352;23.808;2023-05-24T12:29:34;94517.34;;;21.91;41.21
62978;BME280;49073;42.352;23.808;2023-05-24T12:32:34;94511.97;;;21.75;41.29
62978;BME280;49073;42.352;23.808;2023-05-24T12:35:35;94499.91;;;21.63;40.51
62978;BME280;49073;42.352;23.808;2023-05-24T12:38:35;94509.88;;;21.96;44.20
62978;BME280;49073;42.352;23.808;2023-05-24T12:41:36;94500.13;;;22.11;42.33
62978;BME280;49073;42.352;23.808;2023-05-24T12:44:37;94502.72;;;22.02;43.95
62978;BME280;49073;42.352;23.808;2023-05-24T12:47:37;94495.09;;;21.97;42.18
62978;BME280;49073;42.352;23.808;2023-05-24T12:50:38;94497.19;;;22.57;42.17
62978;BME280;49073;42.352;23.808;2023-05-24T12:53:39;94503.22;;;23.00;39.36
62978;BME280;49073;42.352;23.808;2023-05-24T12:56:39;94501.28;;;22.88;38.94
62978;BME280;49073;42.352;23.808;2023-05-24T12:59:40;94492.22;;;22.69;39.06
62978;BME280;49073;42.352;23.808;2023-05-24T13:02:41;94487.97;;;22.55;39.57
62978;BME280;49073;42.352;23.808;2023-05-24T13:05:41;94488.41;;;22.53;41.39
62978;BME280;49073;42.352;23.808;2023-05-24T13:08:42;94499.91;;;22.31;41.30
62978;BME280;49073;42.352;23.808;2023-05-24T13:11:43;94500.53;;;22.22;41.24
62978;BME280;49073;42.352;23.808;2023-05-24T13:14:43;94490.13;;;22.08;43.53
62978;BME280;49073;42.352;23.808;2023-05-24T13:17:44;94489.03;;;21.92;44.09
62978;BME280;49073;42.352;23.808;2023-05-24T13:20:46;94482.88;;;22.18;43.16
62978;BME280;49073;42.352;23.808;2023-05-24T13:23:46;94487.09;;;22.32;42.92
62978;BME280;49073;42.352;23.808;2023-05-24T13:26:47;94482.47;;;22.45;42.82
62978;BME280;49073;42.352;23.808;2023-05-24T13:29:48;94487.09;;;22.58;41.00
62978;BME280;49073;42.352;23.808;2023-05-24T13:32:49;94489.25;;;22.76;41.69
62978;BME280;49073;42.352;23.808;2023-05-24T13:35:49;94488.06;;;23.12;39.92
62978;BME280;49073;42.352;23.808;2023-05-24T13:38:50;94485.00;;;23.23;40.05
62978;BME280;49073;42.352;23.808;2023-05-24T13:41:51;94487.00;;;23.09;38.55
62978;BME280;49073;42.352;23.808;2023-05-24T13:44:52;94470.69;;;23.09;39.15
62978;BME280;49073;42.352;23.808;2023-05-24T13:47:55;94468.69;;;23.23;38.27
62978;BME280;49073;42.352;23.808;2023-05-24T13:51:03;94473.78;;;23.56;39.07
62978;BME280;49073;42.352;23.808;2023-05-24T13:54:04;94472.06;;;23.72;38.77
62978;BME280;49073;42.352;23.808;2023-05-24T13:57:06;94474.31;;;23.95;38.78
62978;BME280;49073;42.352;23.808;2023-05-24T14:00:07;94471.50;;;23.77;38.91
62978;BME280;49073;42.352;23.808;2023-05-24T14:03:08;94465.50;;;23.60;40.40
62978;BME280;49073;42.352;23.808;2023-05-24T14:06:09;94467.31;;;23.41;40.43
62978;BME280;49073;42.352;23.808;2023-05-24T14:09:09;94463.34;;;23.19;39.26
62978;BME280;49073;42.352;23.808;2023-05-24T14:12:10;94469.53;;;22.98;42.59
62978;BME280;49073;42.352;23.808;2023-05-24T14:15:11;94461.84;;;23.18;39.83
62978;BME280;49073;42.352;23.808;2023-05-24T14:18:12;94458.31;;;23.08;40.01
62978;BME280;49073;42.352;23.808;2023-05-24T14:21:13;94458.38;;;23.18;39.77
62978;BME280;49073;42.352;23.808;2023-05-24T14:24:14;94456.25;;;23.00;39.04
62978;BME280;49073;42.352;23.808;2023-05-24T14:27:16;94456.75;;;22.85;39.00
62978;BME280;49073;42.352;23.808;2023-05-24T14:30:16;94458.97;;;23.00;40.10
62978;BME280;49073;42.352;23.808;2023-05-24T14:33:17;94459.81;;;23.09;42.89
62978;BME280;49073;42.352;23.808;2023-05-24T14:36:17;94455.69;;;23.05;41.57
62978;BME280;49073;42.352;23.808;2023-05-24T14:39:18;94450.06;;;22.64;41.82
62978;BME280;49073;42.352;23.808;2023-05-24T14:42:19;94450.59;;;22.59;41.68
62978;BME280;49073;42.352;23.808;2023-05-24T14:45:19;94448.75;;;22.56;41.43
62978;BME280;49073;42.352;23.808;2023-05-24T14:48:20;94449.63;;;22.52;42.35
62978;BME280;49073;42.352;23.808;2023-05-24T14:51:22;94452.91;;;22.47;42.25
62978;BME280;49073;42.352;23.808;2023-05-24T14:54:23;94449.31;;;22.50;41.59
62978;BME280;49073;42.352;23.808;2023-05-24T14:57:23;94448.44;;;22.54;42.56
62978;BME280;49073;42.352;23.808;2023-05-24T15:00:24;94440.38;;;22.37;41.84
62978;BME280;49073;42.352;23.808;2023-05-24T15:03:25;94441.06;;;22.41;41.73
62978;BME280;49073;42.352;23.808;2023-05-24T15:06:25;94439.84;;;22.42;40.55
62978;BME280;49073;42.352;23.808;2023-05-24T15:09:27;94436.06;;;22.27;41.73
62978;BME280;49073;42.352;23.808;2023-05-24T15:12:27;94440.50;;;22.20;42.47
62978;BME280;49073;42.352;23.808;2023-05-24T15:15:28;94436.72;;;22.18;41.26
62978;BME280;49073;42.352;23.808;2023-05-24T15:18:30;94435.53;;;22.06;41.66
62978;BME280;49073;42.352;23.808;2023-05-24T15:21:30;94434.41;;;21.77;43.02
62978;BME280;49073;42.352;23.808;2023-05-24T15:24:31;94435.09;;;21.94;43.24
62978;BME280;49073;42.352;23.808;2023-05-24T15:27:32;94432.69;;;21.84;42.35
62978;BME280;49073;42.352;23.808;2023-05-24T15:30:32;94427.38;;;21.80;42.46
62978;BME280;49073;42.352;23.808;2023-05-24T15:33:34;94433.13;;;21.69;42.77
62978;BME280;49073;42.352;23.808;2023-05-24T15:36:36;94436.63;;;21.53;43.19
62978;BME280;49073;42.352;23.808;2023-05-24T15:39:37;94428.81;;;21.55;43.01
62978;BME280;49073;42.352;23.808;2023-05-24T15:42:38;94427.50;;;21.47;41.81
62978;BME280;49073;42.352;23.808;2023-05-24T15:45:39;94431.88;;;21.57;42.71
62978;BME280;49073;42.352;23.808;2023-05-24T15:48:39;94433.19;;;21.65;43.19
62978;BME280;49073;42.352;23.808;2023-05-24T15:51:40;94444.84;;;21.36;44.23
62978;BME280;49073;42.352;23.808;2023-05-24T15:54:40;94446.63;;;21.27;45.53
62978;BME280;49073;42.352;23.808;2023-05-24T15:57:41;94458.91;;;21.31;45.88
62978;BME280;49073;42.352;23.808;2023-05-24T16:00:41;94450.78;;;21.31;47.66
62978;BME280;49073;42.352;23.808;2023-05-24T16:03:42;94456.53;;;21.33;50.93
62978;BME280;49073;42.352;23.808;2023-05-24T16:06:42;94459.25;;;21.46;52.69